Jody Ann — WDJ5593 — position and weather

sailwx.info

Track history (hours):
 
Tides and Currents Weather Stations Pressure Air Temp Water Temp Dewpoint Dewpoint Depression Visibility Wind Speed Wind Dir Waves Ship Positions

Jody Ann

Owner: Dean Equipment Inc., Harvey, LA. More information available from US FCC via Universal Licensing System and Coast Guard Vessel Documentation Center.

Last reported at 2018-Feb-25 03:30 UTC. Time now 2018-Feb-25 03:43 UTC.
Position N 30°04' W 093°16'.

Length 17 m; draft 2.3 m.

Type: Towing. MMSI: 367789370.

Date/timePositionNaut miles runAvg speedWind from/ knotsBaromVisibWave heightAir tempDewpointWater temp
2018-Feb-25 03:30N 30°04' W 093°16'0 0.0
2018-Feb-25 03:00N 30°04' W 093°16'0 0.0
2018-Feb-25 02:30N 30°04' W 093°16'0 0.0
2018-Feb-25 02:00N 30°04' W 093°16'0 0.0
2018-Feb-25 01:30N 30°04' W 093°16'0 0.0
2018-Feb-25 01:00N 30°04' W 093°16'2 3.0
2018-Feb-25 00:30N 30°02' W 093°16'2 4.8
2018-Feb-25 00:00N 30°01' W 093°14'2 5.0
2018-Feb-24 23:30N 29°59' W 093°12'3 5.5
2018-Feb-24 22:57N 29°56' W 093°10'3 5.4
2018-Feb-24 22:29N 29°56' W 093°07'3 2.6
2018-Feb-24 21:23N 29°56' W 093°03'0 0.0
2018-Feb-24 19:51N 29°56' W 093°03'0 0.0
2018-Feb-24 19:30N 29°56' W 093°03'0 0.1
2018-Feb-24 19:00N 29°56' W 093°03'37 1.9
2018-Feb-23 23:08N 29°51' W 092°21'1 5.7
2018-Feb-23 22:56N 29°51' W 092°20'2 5.6
2018-Feb-23 22:30N 29°50' W 092°18'3 5.9
2018-Feb-23 22:00N 29°48' W 092°15'2 4.4
2018-Feb-23 21:30N 29°47' W 092°12'1 2.4
2018-Feb-23 21:00N 29°47' W 092°11'1 2.8
2018-Feb-23 20:30N 29°47' W 092°09'3 5.6
2018-Feb-23 20:00N 29°48' W 092°06'3 5.5
2018-Feb-23 19:30N 29°49' W 092°03'64 2.6
2018-Feb-22 19:07N 29°32' W 090°52'1 6.0
2018-Feb-22 19:00N 29°32' W 090°51'3 5.9
2018-Feb-22 18:30N 29°32' W 090°48'3 5.1
2018-Feb-22 18:00N 29°33' W 090°45'2 4.4
2018-Feb-22 17:30N 29°34' W 090°43'1 1.8
2018-Feb-22 17:00N 29°35' W 090°43'2 3.4
2018-Feb-22 16:30N 29°37' W 090°42'1 2.2
2018-Feb-22 16:00N 29°36' W 090°41'1 1.1
2018-Feb-22 15:30N 29°36' W 090°40'3 6.1
2018-Feb-22 15:00N 29°35' W 090°37'3 6.0
2018-Feb-22 14:30N 29°34' W 090°34'  
Track history (hours):
 
Tides and Currents Weather Stations Pressure Air Temp Water Temp Dewpoint Dewpoint Depression Visibility Wind Speed Wind Dir Waves Ship Positions

Jody Ann

Owner: Dean Equipment Inc., Harvey, LA. More information available from US FCC via Universal Licensing System and Coast Guard Vessel Documentation Center.

Last reported at 2018-Feb-25 03:30 UTC. Time now 2018-Feb-25 03:43 UTC.
Position N 30°04' W 093°16'.

Length 17 m; draft 2.3 m.

Type: Towing. MMSI: 367789370.

Date/timePositionNaut miles runAvg speedWind from/ knotsBaromVisibWave heightAir tempDewpointWater temp
2018-Feb-25 03:30N 30°04' W 093°16'0 0.0
2018-Feb-25 03:00N 30°04' W 093°16'0 0.0
2018-Feb-25 02:30N 30°04' W 093°16'0 0.0
2018-Feb-25 02:00N 30°04' W 093°16'0 0.0
2018-Feb-25 01:30N 30°04' W 093°16'0 0.0
2018-Feb-25 01:00N 30°04' W 093°16'2 3.0
2018-Feb-25 00:30N 30°02' W 093°16'2 4.8
2018-Feb-25 00:00N 30°01' W 093°14'2 5.0
2018-Feb-24 23:30N 29°59' W 093°12'3 5.5
2018-Feb-24 22:57N 29°56' W 093°10'3 5.4
2018-Feb-24 22:29N 29°56' W 093°07'3 2.6
2018-Feb-24 21:23N 29°56' W 093°03'0 0.0
2018-Feb-24 19:51N 29°56' W 093°03'0 0.0
2018-Feb-24 19:30N 29°56' W 093°03'0 0.1
2018-Feb-24 19:00N 29°56' W 093°03'37 1.9
2018-Feb-23 23:08N 29°51' W 092°21'1 5.7
2018-Feb-23 22:56N 29°51' W 092°20'2 5.6
2018-Feb-23 22:30N 29°50' W 092°18'3 5.9
2018-Feb-23 22:00N 29°48' W 092°15'2 4.4
2018-Feb-23 21:30N 29°47' W 092°12'1 2.4
2018-Feb-23 21:00N 29°47' W 092°11'1 2.8
2018-Feb-23 20:30N 29°47' W 092°09'3 5.6
2018-Feb-23 20:00N 29°48' W 092°06'3 5.5
2018-Feb-23 19:30N 29°49' W 092°03'64 2.6
2018-Feb-22 19:07N 29°32' W 090°52'1 6.0
2018-Feb-22 19:00N 29°32' W 090°51'3 5.9
2018-Feb-22 18:30N 29°32' W 090°48'3 5.1
2018-Feb-22 18:00N 29°33' W 090°45'2 4.4
2018-Feb-22 17:30N 29°34' W 090°43'1 1.8
2018-Feb-22 17:00N 29°35' W 090°43'2 3.4
2018-Feb-22 16:30N 29°37' W 090°42'1 2.2
2018-Feb-22 16:00N 29°36' W 090°41'1 1.1
2018-Feb-22 15:30N 29°36' W 090°40'3 6.1
2018-Feb-22 15:00N 29°35' W 090°37'3 6.0
2018-Feb-22 14:30N 29°34' W 090°34'  

Dump ship's entire track history